sensor_id;sensor_type;location;lat;lon;timestamp;P1;durP1;ratioP1;P2;durP2;ratioP2
2564;SDS011;1292;48.020;7.822;2022-10-31T06:47:32;10.90;;;4.10;;
2564;SDS011;1292;48.020;7.822;2022-10-31T06:49:59;8.17;;;4.77;;
2564;SDS011;1292;48.020;7.822;2022-10-31T06:52:25;4.47;;;4.00;;
2564;SDS011;1292;48.020;7.822;2022-10-31T06:54:52;8.10;;;4.93;;
2564;SDS011;1292;48.020;7.822;2022-10-31T06:57:19;7.47;;;5.20;;
2564;SDS011;1292;48.020;7.822;2022-10-31T06:59:46;4.73;;;4.33;;
2564;SDS011;1292;48.020;7.822;2022-10-31T07:02:13;4.90;;;4.33;;
2564;SDS011;1292;48.020;7.822;2022-10-31T07:04:41;8.10;;;4.70;;
2564;SDS011;1292;48.020;7.822;2022-10-31T07:07:08;6.90;;;4.70;;
2564;SDS011;1292;48.020;7.822;2022-10-31T07:09:35;5.47;;;4.30;;
2564;SDS011;1292;48.020;7.822;2022-10-31T07:12:02;5.47;;;4.70;;
2564;SDS011;1292;48.020;7.822;2022-10-31T07:14:29;6.10;;;5.03;;
2564;SDS011;1292;48.020;7.822;2022-10-31T07:16:56;6.60;;;5.03;;
2564;SDS011;1292;48.020;7.822;2022-10-31T07:19:23;5.93;;;4.83;;
2564;SDS011;1292;48.020;7.822;2022-10-31T07:21:51;10.00;;;5.77;;
2564;SDS011;1292;48.020;7.822;2022-10-31T07:24:18;10.53;;;5.07;;
2564;SDS011;1292;48.020;7.822;2022-10-31T07:26:45;9.67;;;5.13;;
2564;SDS011;1292;48.020;7.822;2022-10-31T07:29:12;5.60;;;4.83;;
2564;SDS011;1292;48.020;7.822;2022-10-31T07:31:39;5.90;;;4.90;;
2564;SDS011;1292;48.020;7.822;2022-10-31T07:34:06;7.17;;;5.33;;
2564;SDS011;1292;48.020;7.822;2022-10-31T07:36:32;6.70;;;4.87;;
2564;SDS011;1292;48.020;7.822;2022-10-31T07:39:01;5.60;;;5.00;;
2564;SDS011;1292;48.020;7.822;2022-10-31T07:41:28;11.27;;;6.07;;
2564;SDS011;1292;48.020;7.822;2022-10-31T07:43:55;8.53;;;5.60;;
2564;SDS011;1292;48.020;7.822;2022-10-31T07:46:21;7.00;;;5.40;;
2564;SDS011;1292;48.020;7.822;2022-10-31T07:48:48;5.97;;;4.43;;
2564;SDS011;1292;48.020;7.822;2022-10-31T07:51:15;9.47;;;5.83;;
2564;SDS011;1292;48.020;7.822;2022-10-31T07:53:42;6.20;;;5.57;;
2564;SDS011;1292;48.020;7.822;2022-10-31T07:56:10;13.03;;;6.67;;
2564;SDS011;1292;48.020;7.822;2022-10-31T07:58:37;14.53;;;8.50;;
2564;SDS011;1292;48.020;7.822;2022-10-31T08:01:04;12.50;;;7.90;;
2564;SDS011;1292;48.020;7.822;2022-10-31T08:03:31;12.30;;;9.60;;
2564;SDS011;1292;48.020;7.822;2022-10-31T08:05:58;13.20;;;8.77;;
2564;SDS011;1292;48.020;7.822;2022-10-31T08:08:25;13.07;;;7.87;;
2564;SDS011;1292;48.020;7.822;2022-10-31T08:10:53;8.97;;;8.03;;
2564;SDS011;1292;48.020;7.822;2022-10-31T08:13:21;13.20;;;7.67;;
2564;SDS011;1292;48.020;7.822;2022-10-31T08:15:48;8.40;;;7.60;;
2564;SDS011;1292;48.020;7.822;2022-10-31T08:18:17;9.70;;;7.00;;
2564;SDS011;1292;48.020;7.822;2022-10-31T08:20:44;19.43;;;7.70;;
2564;SDS011;1292;48.020;7.822;2022-10-31T08:23:11;8.63;;;6.13;;
2564;SDS011;1292;48.020;7.822;2022-10-31T08:25:38;11.10;;;7.77;;
2564;SDS011;1292;48.020;7.822;2022-10-31T08:28:07;15.10;;;8.50;;
2564;SDS011;1292;48.020;7.822;2022-10-31T08:30:38;10.17;;;8.53;;
2564;SDS011;1292;48.020;7.822;2022-10-31T08:33:06;7.53;;;6.73;;
2564;SDS011;1292;48.020;7.822;2022-10-31T08:35:35;9.27;;;7.03;;
2564;SDS011;1292;48.020;7.822;2022-10-31T08:38:02;9.07;;;7.07;;
2564;SDS011;1292;48.020;7.822;2022-10-31T08:40:30;9.90;;;7.17;;
2564;SDS011;1292;48.020;7.822;2022-10-31T08:42:59;13.80;;;9.53;;
2564;SDS011;1292;48.020;7.822;2022-10-31T08:45:26;10.57;;;7.93;;
2564;SDS011;1292;48.020;7.822;2022-10-31T08:47:57;10.93;;;8.13;;
2564;SDS011;1292;48.020;7.822;2022-10-31T08:50:25;14.97;;;7.80;;
2564;SDS011;1292;48.020;7.822;2022-10-31T08:52:53;11.17;;;9.33;;
2564;SDS011;1292;48.020;7.822;2022-10-31T08:55:20;10.57;;;7.63;;
2564;SDS011;1292;48.020;7.822;2022-10-31T08:57:47;8.27;;;5.93;;
2564;SDS011;1292;48.020;7.822;2022-10-31T09:00:13;9.33;;;6.87;;
2564;SDS011;1292;48.020;7.822;2022-10-31T09:02:41;9.53;;;6.00;;
2564;SDS011;1292;48.020;7.822;2022-10-31T09:05:09;10.70;;;6.83;;
2564;SDS011;1292;48.020;7.822;2022-10-31T09:07:36;9.07;;;6.43;;
2564;SDS011;1292;48.020;7.822;2022-10-31T09:10:03;6.40;;;5.80;;
2564;SDS011;1292;48.020;7.822;2022-10-31T09:12:30;8.63;;;5.63;;
2564;SDS011;1292;48.020;7.822;2022-10-31T09:14:56;10.07;;;5.60;;
2564;SDS011;1292;48.020;7.822;2022-10-31T09:17:25;12.10;;;6.60;;
2564;SDS011;1292;48.020;7.822;2022-10-31T09:19:54;6.97;;;6.00;;
2564;SDS011;1292;48.020;7.822;2022-10-31T09:22:22;10.20;;;6.07;;
2564;SDS011;1292;48.020;7.822;2022-10-31T09:24:49;9.87;;;7.37;;
2564;SDS011;1292;48.020;7.822;2022-10-31T09:27:16;11.67;;;5.90;;
2564;SDS011;1292;48.020;7.822;2022-10-31T09:29:42;6.73;;;5.93;;
2564;SDS011;1292;48.020;7.822;2022-10-31T09:32:09;9.67;;;6.50;;
2564;SDS011;1292;48.020;7.822;2022-10-31T09:34:36;8.97;;;6.67;;
2564;SDS011;1292;48.020;7.822;2022-10-31T09:37:03;6.77;;;5.60;;
2564;SDS011;1292;48.020;7.822;2022-10-31T09:39:31;5.93;;;5.10;;
2564;SDS011;1292;48.020;7.822;2022-10-31T09:42:04;8.43;;;5.90;;
2564;SDS011;1292;48.020;7.822;2022-10-31T09:44:44;11.13;;;5.77;;
2564;SDS011;1292;48.020;7.822;2022-10-31T09:47:24;10.90;;;6.20;;
2564;SDS011;1292;48.020;7.822;2022-10-31T09:50:05;11.70;;;5.60;;
2564;SDS011;1292;48.020;7.822;2022-10-31T09:52:41;11.33;;;5.07;;
2564;SDS011;1292;48.020;7.822;2022-10-31T09:55:15;8.10;;;6.00;;
2564;SDS011;1292;48.020;7.822;2022-10-31T09:57:45;13.13;;;5.70;;
2564;SDS011;1292;48.020;7.822;2022-10-31T10:00:14;12.57;;;5.93;;
2564;SDS011;1292;48.020;7.822;2022-10-31T10:02:44;10.50;;;5.20;;
2564;SDS011;1292;48.020;7.822;2022-10-31T10:05:17;7.17;;;5.37;;
2564;SDS011;1292;48.020;7.822;2022-10-31T10:07:49;12.63;;;6.50;;
2564;SDS011;1292;48.020;7.822;2022-10-31T10:10:24;6.37;;;5.40;;
2564;SDS011;1292;48.020;7.822;2022-10-31T10:13:03;10.80;;;6.17;;
2564;SDS011;1292;48.020;7.822;2022-10-31T10:15:48;5.20;;;4.70;;
2564;SDS011;1292;48.020;7.822;2022-10-31T10:18:27;7.70;;;5.73;;
2564;SDS011;1292;48.020;7.822;2022-10-31T10:21:05;8.40;;;5.57;;
2564;SDS011;1292;48.020;7.822;2022-10-31T10:23:47;6.90;;;5.27;;
2564;SDS011;1292;48.020;7.822;2022-10-31T10:26:25;10.83;;;5.07;;
2564;SDS011;1292;48.020;7.822;2022-10-31T10:28:57;9.93;;;5.73;;
2564;SDS011;1292;48.020;7.822;2022-10-31T10:31:28;8.47;;;5.70;;
2564;SDS011;1292;48.020;7.822;2022-10-31T10:34:02;6.17;;;4.80;;
2564;SDS011;1292;48.020;7.822;2022-10-31T10:36:36;7.80;;;5.30;;
2564;SDS011;1292;48.020;7.822;2022-10-31T10:39:08;6.40;;;5.20;;
2564;SDS011;1292;48.020;7.822;2022-10-31T10:41:44;10.80;;;5.23;;
2564;SDS011;1292;48.020;7.822;2022-10-31T10:44:27;11.37;;;4.33;;
2564;SDS011;1292;48.020;7.822;2022-10-31T10:47:11;9.00;;;5.57;;
2564;SDS011;1292;48.020;7.822;2022-10-31T10:49:56;12.30;;;6.90;;
2564;SDS011;1292;48.020;7.822;2022-10-31T10:52:26;8.30;;;7.33;;
2564;SDS011;1292;48.020;7.822;2022-10-31T10:54:59;8.67;;;6.57;;
2564;SDS011;1292;48.020;7.822;2022-10-31T10:57:41;7.43;;;6.73;;
2564;SDS011;1292;48.020;7.822;2022-10-31T11:00:20;9.57;;;8.17;;
2564;SDS011;1292;48.020;7.822;2022-10-31T11:02:48;8.40;;;7.47;;
2564;SDS011;1292;48.020;7.822;2022-10-31T11:05:19;9.97;;;8.40;;
2564;SDS011;1292;48.020;7.822;2022-10-31T11:07:50;12.93;;;6.70;;
2564;SDS011;1292;48.020;7.822;2022-10-31T11:10:17;8.93;;;6.90;;
2564;SDS011;1292;48.020;7.822;2022-10-31T11:12:56;9.43;;;8.53;;
2564;SDS011;1292;48.020;7.822;2022-10-31T11:15:31;12.33;;;6.87;;
2564;SDS011;1292;48.020;7.822;2022-10-31T11:18:02;8.70;;;7.00;;
2564;SDS011;1292;48.020;7.822;2022-10-31T11:20:30;8.70;;;6.50;;
2564;SDS011;1292;48.020;7.822;2022-10-31T11:23:04;9.07;;;6.77;;
2564;SDS011;1292;48.020;7.822;2022-10-31T11:25:47;7.23;;;5.90;;
2564;SDS011;1292;48.020;7.822;2022-10-31T11:28:17;9.70;;;6.43;;
2564;SDS011;1292;48.020;7.822;2022-10-31T11:30:44;10.77;;;6.40;;
2564;SDS011;1292;48.020;7.822;2022-10-31T11:33:16;12.60;;;7.30;;
2564;SDS011;1292;48.020;7.822;2022-10-31T11:35:46;8.30;;;6.43;;
2564;SDS011;1292;48.020;7.822;2022-10-31T11:38:15;8.27;;;6.73;;
2564;SDS011;1292;48.020;7.822;2022-10-31T11:40:52;8.80;;;6.13;;
2564;SDS011;1292;48.020;7.822;2022-10-31T11:43:22;11.37;;;5.60;;
2564;SDS011;1292;48.020;7.822;2022-10-31T11:45:49;10.50;;;5.97;;
2564;SDS011;1292;48.020;7.822;2022-10-31T11:48:17;9.70;;;6.30;;
2564;SDS011;1292;48.020;7.822;2022-10-31T11:50:49;13.10;;;7.00;;
2564;SDS011;1292;48.020;7.822;2022-10-31T11:53:18;9.77;;;5.53;;
2564;SDS011;1292;48.020;7.822;2022-10-31T11:55:58;7.17;;;5.60;;
2564;SDS011;1292;48.020;7.822;2022-10-31T11:58:30;6.67;;;5.63;;
2564;SDS011;1292;48.020;7.822;2022-10-31T12:00:57;11.53;;;7.20;;
2564;SDS011;1292;48.020;7.822;2022-10-31T12:03:30;9.53;;;6.50;;
2564;SDS011;1292;48.020;7.822;2022-10-31T12:06:04;10.03;;;7.30;;
2564;SDS011;1292;48.020;7.822;2022-10-31T12:08:35;7.93;;;5.63;;
2564;SDS011;1292;48.020;7.822;2022-10-31T12:11:09;6.07;;;5.43;;
2564;SDS011;1292;48.020;7.822;2022-10-31T12:13:48;6.77;;;4.73;;
2564;SDS011;1292;48.020;7.822;2022-10-31T12:16:26;13.60;;;6.03;;
2564;SDS011;1292;48.020;7.822;2022-10-31T12:18:59;5.73;;;4.87;;
2564;SDS011;1292;48.020;7.822;2022-10-31T12:24:43;5.63;;;4.77;;
2564;SDS011;1292;48.020;7.822;2022-10-31T12:27:23;10.13;;;5.23;;
2564;SDS011;1292;48.020;7.822;2022-10-31T12:30:03;6.37;;;4.50;;
2564;SDS011;1292;48.020;7.822;2022-10-31T12:32:47;6.73;;;5.23;;
2564;SDS011;1292;48.020;7.822;2022-10-31T12:35:44;6.60;;;4.13;;
2564;SDS011;1292;48.020;7.822;2022-10-31T12:41:15;5.27;;;4.00;;
2564;SDS011;1292;48.020;7.822;2022-10-31T12:44:03;7.17;;;4.03;;
2564;SDS011;1292;48.020;7.822;2022-10-31T12:46:39;6.57;;;3.83;;
2564;SDS011;1292;48.020;7.822;2022-10-31T12:49:25;8.40;;;3.90;;
2564;SDS011;1292;48.020;7.822;2022-10-31T12:52:03;6.40;;;3.63;;
2564;SDS011;1292;48.020;7.822;2022-10-31T12:54:48;7.03;;;4.03;;
2564;SDS011;1292;48.020;7.822;2022-10-31T12:57:29;6.00;;;3.43;;
2564;SDS011;1292;48.020;7.822;2022-10-31T13:00:00;5.63;;;4.00;;
2564;SDS011;1292;48.020;7.822;2022-10-31T13:02:33;6.17;;;3.77;;
2564;SDS011;1292;48.020;7.822;2022-10-31T13:05:05;20.63;;;4.70;;
2564;SDS011;1292;48.020;7.822;2022-10-31T13:07:43;6.53;;;4.10;;
2564;SDS011;1292;48.020;7.822;2022-10-31T13:10:15;6.10;;;3.77;;
2564;SDS011;1292;48.020;7.822;2022-10-31T13:12:46;5.47;;;3.97;;
2564;SDS011;1292;48.020;7.822;2022-10-31T13:15:16;6.07;;;3.80;;
2564;SDS011;1292;48.020;7.822;2022-10-31T13:17:48;10.17;;;4.20;;
2564;SDS011;1292;48.020;7.822;2022-10-31T13:20:23;6.63;;;4.60;;
2564;SDS011;1292;48.020;7.822;2022-10-31T13:22:54;8.53;;;4.43;;
2564;SDS011;1292;48.020;7.822;2022-10-31T13:25:31;6.93;;;4.50;;
2564;SDS011;1292;48.020;7.822;2022-10-31T13:28:08;5.27;;;4.50;;
2564;SDS011;1292;48.020;7.822;2022-10-31T13:30:46;5.83;;;4.37;;
2564;SDS011;1292;48.020;7.822;2022-10-31T13:33:18;5.53;;;4.97;;
2564;SDS011;1292;48.020;7.822;2022-10-31T13:35:50;6.73;;;4.53;;
2564;SDS011;1292;48.020;7.822;2022-10-31T13:38:22;8.67;;;5.40;;
2564;SDS011;1292;48.020;7.822;2022-10-31T13:40:57;9.20;;;5.23;;
2564;SDS011;1292;48.020;7.822;2022-10-31T13:43:28;12.67;;;5.63;;
2564;SDS011;1292;48.020;7.822;2022-10-31T13:48:50;8.47;;;5.47;;
2564;SDS011;1292;48.020;7.822;2022-10-31T13:51:24;5.63;;;5.10;;
2564;SDS011;1292;48.020;7.822;2022-10-31T13:53:57;14.23;;;6.37;;
2564;SDS011;1292;48.020;7.822;2022-10-31T13:56:27;7.60;;;5.90;;
2564;SDS011;1292;48.020;7.822;2022-10-31T13:59:03;6.63;;;5.90;;
2564;SDS011;1292;48.020;7.822;2022-10-31T14:01:51;13.70;;;7.40;;
2564;SDS011;1292;48.020;7.822;2022-10-31T14:04:23;16.40;;;7.13;;
2564;SDS011;1292;48.020;7.822;2022-10-31T14:06:56;13.50;;;8.13;;
2564;SDS011;1292;48.020;7.822;2022-10-31T14:09:26;8.03;;;6.77;;
2564;SDS011;1292;48.020;7.822;2022-10-31T14:11:56;12.80;;;6.30;;
2564;SDS011;1292;48.020;7.822;2022-10-31T14:14:28;10.50;;;5.80;;
2564;SDS011;1292;48.020;7.822;2022-10-31T14:16:59;5.93;;;4.63;;
2564;SDS011;1292;48.020;7.822;2022-10-31T14:19:28;7.10;;;5.40;;
2564;SDS011;1292;48.020;7.822;2022-10-31T14:21:55;7.27;;;5.27;;
2564;SDS011;1292;48.020;7.822;2022-10-31T14:24:36;5.03;;;4.60;;
2564;SDS011;1292;48.020;7.822;2022-10-31T14:27:04;7.67;;;5.80;;
2564;SDS011;1292;48.020;7.822;2022-10-31T14:29:47;6.13;;;5.20;;
2564;SDS011;1292;48.020;7.822;2022-10-31T14:32:18;6.00;;;5.50;;
2564;SDS011;1292;48.020;7.822;2022-10-31T14:34:53;6.60;;;5.23;;
2564;SDS011;1292;48.020;7.822;2022-10-31T14:37:32;6.20;;;5.60;;
2564;SDS011;1292;48.020;7.822;2022-10-31T14:40:20;23.07;;;5.80;;
2564;SDS011;1292;48.020;7.822;2022-10-31T14:45:48;7.30;;;5.40;;
2564;SDS011;1292;48.020;7.822;2022-10-31T14:48:24;15.60;;;5.37;;
2564;SDS011;1292;48.020;7.822;2022-10-31T14:51:07;11.37;;;4.97;;
2564;SDS011;1292;48.020;7.822;2022-10-31T14:53:40;7.47;;;4.80;;
2564;SDS011;1292;48.020;7.822;2022-10-31T14:56:11;6.30;;;5.30;;
2564;SDS011;1292;48.020;7.822;2022-10-31T14:58:43;10.23;;;5.63;;
2564;SDS011;1292;48.020;7.822;2022-10-31T15:01:15;6.60;;;4.93;;
2564;SDS011;1292;48.020;7.822;2022-10-31T15:03:45;6.47;;;5.00;;
2564;SDS011;1292;48.020;7.822;2022-10-31T15:06:15;6.90;;;5.53;;
2564;SDS011;1292;48.020;7.822;2022-10-31T15:08:44;6.60;;;5.67;;
2564;SDS011;1292;48.020;7.822;2022-10-31T15:11:13;8.07;;;4.97;;
2564;SDS011;1292;48.020;7.822;2022-10-31T15:13:42;16.27;;;5.63;;
2564;SDS011;1292;48.020;7.822;2022-10-31T15:16:10;9.43;;;5.73;;
2564;SDS011;1292;48.020;7.822;2022-10-31T15:18:51;5.77;;;4.67;;
2564;SDS011;1292;48.020;7.822;2022-10-31T15:21:21;7.03;;;4.80;;
2564;SDS011;1292;48.020;7.822;2022-10-31T15:23:50;5.73;;;5.13;;
2564;SDS011;1292;48.020;7.822;2022-10-31T15:26:20;6.10;;;4.60;;
2564;SDS011;1292;48.020;7.822;2022-10-31T15:28:57;13.93;;;6.83;;
2564;SDS011;1292;48.020;7.822;2022-10-31T15:31:25;7.47;;;6.47;;
2564;SDS011;1292;48.020;7.822;2022-10-31T15:33:52;8.00;;;6.10;;
2564;SDS011;1292;48.020;7.822;2022-10-31T15:36:24;7.83;;;6.10;;
2564;SDS011;1292;48.020;7.822;2022-10-31T15:38:51;9.70;;;5.93;;
2564;SDS011;1292;48.020;7.822;2022-10-31T15:41:26;6.27;;;5.30;;
2564;SDS011;1292;48.020;7.822;2022-10-31T15:43:57;10.30;;;5.87;;
2564;SDS011;1292;48.020;7.822;2022-10-31T15:46:28;12.43;;;6.50;;
2564;SDS011;1292;48.020;7.822;2022-10-31T15:48:55;14.50;;;6.03;;
2564;SDS011;1292;48.020;7.822;2022-10-31T15:51:27;6.83;;;5.00;;
2564;SDS011;1292;48.020;7.822;2022-10-31T15:53:56;8.20;;;5.17;;
2564;SDS011;1292;48.020;7.822;2022-10-31T15:56:25;10.30;;;5.53;;
2564;SDS011;1292;48.020;7.822;2022-10-31T15:58:55;5.90;;;5.30;;
2564;SDS011;1292;48.020;7.822;2022-10-31T16:01:24;7.93;;;6.40;;
2564;SDS011;1292;48.020;7.822;2022-10-31T16:04:00;8.63;;;6.83;;
2564;SDS011;1292;48.020;7.822;2022-10-31T16:06:30;8.33;;;6.17;;
2564;SDS011;1292;48.020;7.822;2022-10-31T16:08:58;8.47;;;6.57;;
2564;SDS011;1292;48.020;7.822;2022-10-31T16:11:28;7.80;;;6.17;;
2564;SDS011;1292;48.020;7.822;2022-10-31T16:14:00;6.90;;;6.10;;
2564;SDS011;1292;48.020;7.822;2022-10-31T16:16:31;8.50;;;5.80;;
2564;SDS011;1292;48.020;7.822;2022-10-31T16:18:59;10.83;;;6.83;;
2564;SDS011;1292;48.020;7.822;2022-10-31T16:21:28;9.33;;;6.30;;
2564;SDS011;1292;48.020;7.822;2022-10-31T16:24:00;6.27;;;5.40;;
2564;SDS011;1292;48.020;7.822;2022-10-31T16:26:29;8.60;;;6.27;;
2564;SDS011;1292;48.020;7.822;2022-10-31T16:28:58;12.63;;;7.30;;
2564;SDS011;1292;48.020;7.822;2022-10-31T16:31:29;8.07;;;6.83;;
2564;SDS011;1292;48.020;7.822;2022-10-31T16:34:02;8.20;;;5.70;;
2564;SDS011;1292;48.020;7.822;2022-10-31T16:36:40;10.43;;;6.60;;
2564;SDS011;1292;48.020;7.822;2022-10-31T16:39:08;9.07;;;5.97;;
2564;SDS011;1292;48.020;7.822;2022-10-31T16:41:36;7.80;;;5.97;;
2564;SDS011;1292;48.020;7.822;2022-10-31T16:44:06;6.80;;;5.53;;
2564;SDS011;1292;48.020;7.822;2022-10-31T16:46:40;8.90;;;6.90;;
2564;SDS011;1292;48.020;7.822;2022-10-31T16:49:07;14.77;;;8.50;;
2564;SDS011;1292;48.020;7.822;2022-10-31T16:51:34;12.20;;;8.20;;
2564;SDS011;1292;48.020;7.822;2022-10-31T16:54:03;12.27;;;7.00;;
2564;SDS011;1292;48.020;7.822;2022-10-31T16:56:30;7.80;;;7.00;;
2564;SDS011;1292;48.020;7.822;2022-10-31T16:58:59;8.53;;;7.20;;
2564;SDS011;1292;48.020;7.822;2022-10-31T17:01:29;9.40;;;7.33;;
2564;SDS011;1292;48.020;7.822;2022-10-31T17:03:56;12.90;;;8.80;;
2564;SDS011;1292;48.020;7.822;2022-10-31T17:06:23;9.43;;;6.90;;
2564;SDS011;1292;48.020;7.822;2022-10-31T17:08:52;9.40;;;6.63;;
2564;SDS011;1292;48.020;7.822;2022-10-31T17:11:21;11.80;;;6.87;;
2564;SDS011;1292;48.020;7.822;2022-10-31T17:13:50;7.57;;;6.40;;
2564;SDS011;1292;48.020;7.822;2022-10-31T17:16:17;11.93;;;6.63;;
2564;SDS011;1292;48.020;7.822;2022-10-31T17:18:44;7.07;;;6.37;;
2564;SDS011;1292;48.020;7.822;2022-10-31T17:21:13;15.57;;;7.27;;
2564;SDS011;1292;48.020;7.822;2022-10-31T17:23:43;9.77;;;6.37;;
2564;SDS011;1292;48.020;7.822;2022-10-31T17:26:10;8.90;;;6.73;;
2564;SDS011;1292;48.020;7.822;2022-10-31T17:28:38;20.33;;;7.67;;
2564;SDS011;1292;48.020;7.822;2022-10-31T17:31:05;14.30;;;7.50;;
2564;SDS011;1292;48.020;7.822;2022-10-31T17:33:36;9.23;;;7.53;;
2564;SDS011;1292;48.020;7.822;2022-10-31T17:36:04;13.20;;;7.03;;
2564;SDS011;1292;48.020;7.822;2022-10-31T17:38:31;8.07;;;7.27;;
2564;SDS011;1292;48.020;7.822;2022-10-31T17:40:58;9.83;;;7.10;;
2564;SDS011;1292;48.020;7.822;2022-10-31T17:43:29;9.33;;;7.37;;
2564;SDS011;1292;48.020;7.822;2022-10-31T17:45:59;14.33;;;10.00;;
2564;SDS011;1292;48.020;7.822;2022-10-31T17:48:26;16.47;;;12.60;;
2564;SDS011;1292;48.020;7.822;2022-10-31T17:50:53;17.00;;;12.93;;
2564;SDS011;1292;48.020;7.822;2022-10-31T17:53:20;27.27;;;13.67;;
2564;SDS011;1292;48.020;7.822;2022-10-31T17:55:46;24.10;;;19.17;;
2564;SDS011;1292;48.020;7.822;2022-10-31T17:58:13;35.77;;;26.80;;
2564;SDS011;1292;48.020;7.822;2022-10-31T18:00:40;37.53;;;25.00;;
2564;SDS011;1292;48.020;7.822;2022-10-31T18:03:08;31.07;;;23.60;;
2564;SDS011;1292;48.020;7.822;2022-10-31T18:05:35;30.23;;;22.30;;
2564;SDS011;1292;48.020;7.822;2022-10-31T18:08:02;23.80;;;18.07;;
2564;SDS011;1292;48.020;7.822;2022-10-31T18:10:30;27.77;;;17.10;;
2564;SDS011;1292;48.020;7.822;2022-10-31T18:12:56;20.70;;;15.07;;
2564;SDS011;1292;48.020;7.822;2022-10-31T18:15:23;25.10;;;16.97;;
2564;SDS011;1292;48.020;7.822;2022-10-31T18:17:50;26.10;;;17.43;;
2564;SDS011;1292;48.020;7.822;2022-10-31T18:20:18;18.17;;;14.40;;
2564;SDS011;1292;48.020;7.822;2022-10-31T18:22:45;15.20;;;13.40;;
2564;SDS011;1292;48.020;7.822;2022-10-31T18:25:12;24.03;;;14.70;;
2564;SDS011;1292;48.020;7.822;2022-10-31T18:27:39;14.60;;;12.87;;
2564;SDS011;1292;48.020;7.822;2022-10-31T18:30:06;15.63;;;13.90;;
2564;SDS011;1292;48.020;7.822;2022-10-31T18:32:33;27.70;;;15.73;;
2564;SDS011;1292;48.020;7.822;2022-10-31T18:35:00;17.47;;;13.90;;
2564;SDS011;1292;48.020;7.822;2022-10-31T18:37:28;20.30;;;16.67;;
2564;SDS011;1292;48.020;7.822;2022-10-31T18:39:55;24.57;;;19.70;;
2564;SDS011;1292;48.020;7.822;2022-10-31T18:42:22;29.13;;;22.50;;
2564;SDS011;1292;48.020;7.822;2022-10-31T18:44:49;28.33;;;21.20;;
2564;SDS011;1292;48.020;7.822;2022-10-31T18:47:16;20.93;;;17.27;;
2564;SDS011;1292;48.020;7.822;2022-10-31T18:49:44;22.33;;;17.13;;
2564;SDS011;1292;48.020;7.822;2022-10-31T18:52:11;19.57;;;16.97;;
2564;SDS011;1292;48.020;7.822;2022-10-31T18:54:39;18.57;;;16.50;;
2564;SDS011;1292;48.020;7.822;2022-10-31T18:57:06;23.90;;;16.10;;
2564;SDS011;1292;48.020;7.822;2022-10-31T18:59:33;19.40;;;14.57;;
2564;SDS011;1292;48.020;7.822;2022-10-31T19:02:00;20.50;;;15.90;;
2564;SDS011;1292;48.020;7.822;2022-10-31T19:04:27;15.87;;;14.20;;
2564;SDS011;1292;48.020;7.822;2022-10-31T19:06:54;16.67;;;13.60;;
2564;SDS011;1292;48.020;7.822;2022-10-31T19:09:21;19.93;;;15.73;;
2564;SDS011;1292;48.020;7.822;2022-10-31T19:11:49;21.30;;;14.33;;
2564;SDS011;1292;48.020;7.822;2022-10-31T19:14:16;18.47;;;13.70;;
2564;SDS011;1292;48.020;7.822;2022-10-31T19:16:43;14.17;;;12.77;;
2564;SDS011;1292;48.020;7.822;2022-10-31T19:19:10;12.90;;;11.47;;
2564;SDS011;1292;48.020;7.822;2022-10-31T19:21:37;14.00;;;10.70;;
2564;SDS011;1292;48.020;7.822;2022-10-31T19:24:04;14.37;;;10.40;;
2564;SDS011;1292;48.020;7.822;2022-10-31T19:26:31;14.10;;;10.37;;
2564;SDS011;1292;48.020;7.822;2022-10-31T19:29:00;15.27;;;10.53;;
2564;SDS011;1292;48.020;7.822;2022-10-31T19:31:27;12.13;;;9.00;;
2564;SDS011;1292;48.020;7.822;2022-10-31T19:33:53;11.13;;;9.73;;
2564;SDS011;1292;48.020;7.822;2022-10-31T19:36:20;15.30;;;10.13;;
2564;SDS011;1292;48.020;7.822;2022-10-31T19:38:48;15.83;;;11.50;;
2564;SDS011;1292;48.020;7.822;2022-10-31T19:41:16;14.33;;;11.83;;
2564;SDS011;1292;48.020;7.822;2022-10-31T19:43:45;16.13;;;14.17;;
2564;SDS011;1292;48.020;7.822;2022-10-31T19:46:14;13.63;;;12.33;;
2564;SDS011;1292;48.020;7.822;2022-10-31T19:48:42;16.17;;;12.83;;
2564;SDS011;1292;48.020;7.822;2022-10-31T19:51:10;14.00;;;12.60;;
2564;SDS011;1292;48.020;7.822;2022-10-31T19:53:39;16.40;;;13.90;;
2564;SDS011;1292;48.020;7.822;2022-10-31T19:56:09;14.20;;;12.77;;
2564;SDS011;1292;48.020;7.822;2022-10-31T19:58:37;15.30;;;11.60;;
2564;SDS011;1292;48.020;7.822;2022-10-31T20:01:07;18.73;;;13.20;;
2564;SDS011;1292;48.020;7.822;2022-10-31T20:03:36;14.50;;;12.93;;
2564;SDS011;1292;48.020;7.822;2022-10-31T20:06:04;12.73;;;11.30;;
2564;SDS011;1292;48.020;7.822;2022-10-31T20:08:32;17.83;;;12.23;;
2564;SDS011;1292;48.020;7.822;2022-10-31T20:11:01;10.70;;;9.03;;
2564;SDS011;1292;48.020;7.822;2022-10-31T20:13:29;10.80;;;9.67;;
2564;SDS011;1292;48.020;7.822;2022-10-31T20:15:57;13.30;;;9.40;;
2564;SDS011;1292;48.020;7.822;2022-10-31T20:18:25;14.60;;;10.77;;
2564;SDS011;1292;48.020;7.822;2022-10-31T20:20:55;12.87;;;10.07;;
2564;SDS011;1292;48.020;7.822;2022-10-31T20:23:26;12.50;;;10.57;;
2564;SDS011;1292;48.020;7.822;2022-10-31T20:25:53;18.70;;;11.33;;
2564;SDS011;1292;48.020;7.822;2022-10-31T20:28:20;11.40;;;9.90;;
2564;SDS011;1292;48.020;7.822;2022-10-31T20:30:47;11.80;;;9.87;;
2564;SDS011;1292;48.020;7.822;2022-10-31T20:33:14;10.53;;;9.40;;
2564;SDS011;1292;48.020;7.822;2022-10-31T20:35:41;13.70;;;9.90;;
2564;SDS011;1292;48.020;7.822;2022-10-31T20:38:09;15.57;;;11.33;;
2564;SDS011;1292;48.020;7.822;2022-10-31T20:40:36;13.03;;;9.87;;
2564;SDS011;1292;48.020;7.822;2022-10-31T20:43:03;14.93;;;11.63;;
2564;SDS011;1292;48.020;7.822;2022-10-31T20:45:30;13.40;;;10.70;;
2564;SDS011;1292;48.020;7.822;2022-10-31T20:47:57;15.67;;;10.50;;
2564;SDS011;1292;48.020;7.822;2022-10-31T20:50:24;12.73;;;11.40;;
2564;SDS011;1292;48.020;7.822;2022-10-31T20:52:51;19.33;;;9.90;;
2564;SDS011;1292;48.020;7.822;2022-10-31T20:55:20;15.70;;;10.67;;
2564;SDS011;1292;48.020;7.822;2022-10-31T20:57:46;14.67;;;11.17;;
2564;SDS011;1292;48.020;7.822;2022-10-31T21:00:14;16.20;;;11.67;;
2564;SDS011;1292;48.020;7.822;2022-10-31T21:02:41;12.97;;;10.90;;
2564;SDS011;1292;48.020;7.822;2022-10-31T21:05:08;16.63;;;10.70;;
2564;SDS011;1292;48.020;7.822;2022-10-31T21:07:36;12.93;;;11.57;;
2564;SDS011;1292;48.020;7.822;2022-10-31T21:10:03;12.00;;;10.80;;
2564;SDS011;1292;48.020;7.822;2022-10-31T21:12:40;12.23;;;10.90;;
2564;SDS011;1292;48.020;7.822;2022-10-31T21:15:08;17.57;;;11.20;;
2564;SDS011;1292;48.020;7.822;2022-10-31T21:17:36;16.27;;;10.40;;
2564;SDS011;1292;48.020;7.822;2022-10-31T21:20:03;15.57;;;12.37;;
2564;SDS011;1292;48.020;7.822;2022-10-31T21:22:30;14.13;;;11.70;;
2564;SDS011;1292;48.020;7.822;2022-10-31T21:24:57;16.33;;;12.37;;
2564;SDS011;1292;48.020;7.822;2022-10-31T21:27:24;12.27;;;10.70;;
2564;SDS011;1292;48.020;7.822;2022-10-31T21:29:53;14.43;;;10.93;;
2564;SDS011;1292;48.020;7.822;2022-10-31T21:32:20;15.63;;;11.00;;
2564;SDS011;1292;48.020;7.822;2022-10-31T21:34:47;19.20;;;12.33;;
2564;SDS011;1292;48.020;7.822;2022-10-31T21:37:15;14.77;;;13.27;;
2564;SDS011;1292;48.020;7.822;2022-10-31T21:39:42;16.30;;;12.03;;
2564;SDS011;1292;48.020;7.822;2022-10-31T21:42:09;13.10;;;11.90;;
2564;SDS011;1292;48.020;7.822;2022-10-31T21:44:35;14.33;;;11.80;;
2564;SDS011;1292;48.020;7.822;2022-10-31T21:47:04;14.40;;;12.50;;
2564;SDS011;1292;48.020;7.822;2022-10-31T21:49:30;14.30;;;10.73;;
2564;SDS011;1292;48.020;7.822;2022-10-31T21:51:57;17.33;;;11.43;;
2564;SDS011;1292;48.020;7.822;2022-10-31T21:54:24;14.30;;;11.40;;
2564;SDS011;1292;48.020;7.822;2022-10-31T21:56:54;11.97;;;10.03;;
2564;SDS011;1292;48.020;7.822;2022-10-31T21:59:21;14.37;;;10.50;;
